sensor_id;sensor_type;location;lat;lon;timestamp;P1;durP1;ratioP1;P2;durP2;ratioP2
80503;SDS011;69825;51.190;6.808;2023-07-31T00:01:10;1.20;;;1.10;;
80503;SDS011;69825;51.190;6.808;2023-07-31T00:03:35;1.27;;;1.00;;
80503;SDS011;69825;51.190;6.808;2023-07-31T00:06:01;1.00;;;1.00;;
80503;SDS011;69825;51.190;6.808;2023-07-31T00:08:26;1.42;;;1.00;;
80503;SDS011;69825;51.190;6.808;2023-07-31T00:10:52;1.02;;;1.02;;
80503;SDS011;69825;51.190;6.808;2023-07-31T00:13:17;1.30;;;1.20;;
80503;SDS011;69825;51.190;6.808;2023-07-31T00:15:43;1.38;;;1.08;;
80503;SDS011;69825;51.190;6.808;2023-07-31T00:18:08;1.38;;;1.08;;
80503;SDS011;69825;51.190;6.808;2023-07-31T00:20:33;1.08;;;1.02;;
80503;SDS011;69825;51.190;6.808;2023-07-31T00:22:59;1.20;;;1.10;;
80503;SDS011;69825;51.190;6.808;2023-07-31T00:25:24;1.30;;;1.20;;
80503;SDS011;69825;51.190;6.808;2023-07-31T00:27:49;1.00;;;1.00;;
80503;SDS011;69825;51.190;6.808;2023-07-31T00:30:15;1.10;;;1.00;;
80503;SDS011;69825;51.190;6.808;2023-07-31T00:32:41;1.27;;;1.17;;
80503;SDS011;69825;51.190;6.808;2023-07-31T00:35:06;1.00;;;1.00;;
80503;SDS011;69825;51.190;6.808;2023-07-31T00:37:32;1.58;;;1.17;;
80503;SDS011;69825;51.190;6.808;2023-07-31T00:39:57;0.90;;;0.90;;
80503;SDS011;69825;51.190;6.808;2023-07-31T00:42:24;0.80;;;0.80;;
80503;SDS011;69825;51.190;6.808;2023-07-31T00:44:50;0.90;;;0.90;;
80503;SDS011;69825;51.190;6.808;2023-07-31T00:47:15;1.20;;;1.10;;
80503;SDS011;69825;51.190;6.808;2023-07-31T00:49:40;0.98;;;0.98;;
80503;SDS011;69825;51.190;6.808;2023-07-31T00:52:06;1.25;;;1.00;;
80503;SDS011;69825;51.190;6.808;2023-07-31T00:54:32;1.05;;;1.05;;
80503;SDS011;69825;51.190;6.808;2023-07-31T00:56:58;1.17;;;1.10;;
80503;SDS011;69825;51.190;6.808;2023-07-31T00:59:24;1.20;;;1.10;;
80503;SDS011;69825;51.190;6.808;2023-07-31T01:01:50;1.02;;;1.00;;
80503;SDS011;69825;51.190;6.808;2023-07-31T01:04:15;1.30;;;1.20;;
80503;SDS011;69825;51.190;6.808;2023-07-31T01:06:48;1.10;;;1.00;;
80503;SDS011;69825;51.190;6.808;2023-07-31T01:09:29;1.02;;;1.02;;
80503;SDS011;69825;51.190;6.808;2023-07-31T01:12:00;1.10;;;1.10;;
80503;SDS011;69825;51.190;6.808;2023-07-31T01:14:27;1.48;;;1.10;;
80503;SDS011;69825;51.190;6.808;2023-07-31T01:16:52;0.90;;;0.90;;
80503;SDS011;69825;51.190;6.808;2023-07-31T01:19:22;1.40;;;1.30;;
80503;SDS011;69825;51.190;6.808;2023-07-31T01:21:58;1.13;;;1.08;;
80503;SDS011;69825;51.190;6.808;2023-07-31T01:27:26;1.23;;;1.13;;
80503;SDS011;69825;51.190;6.808;2023-07-31T01:30:00;1.08;;;1.08;;
80503;SDS011;69825;51.190;6.808;2023-07-31T01:32:35;1.30;;;1.20;;
80503;SDS011;69825;51.190;6.808;2023-07-31T01:35:04;1.73;;;1.10;;
80503;SDS011;69825;51.190;6.808;2023-07-31T01:37:29;1.00;;;1.00;;
80503;SDS011;69825;51.190;6.808;2023-07-31T01:39:55;1.17;;;1.08;;
80503;SDS011;69825;51.190;6.808;2023-07-31T01:42:20;1.20;;;1.10;;
80503;SDS011;69825;51.190;6.808;2023-07-31T01:44:45;1.10;;;1.00;;
80503;SDS011;69825;51.190;6.808;2023-07-31T01:47:11;1.90;;;1.10;;
80503;SDS011;69825;51.190;6.808;2023-07-31T01:49:36;1.08;;;1.00;;
80503;SDS011;69825;51.190;6.808;2023-07-31T01:52:02;1.40;;;1.30;;
80503;SDS011;69825;51.190;6.808;2023-07-31T01:54:27;2.28;;;1.58;;
80503;SDS011;69825;51.190;6.808;2023-07-31T01:56:52;1.27;;;1.17;;
80503;SDS011;69825;51.190;6.808;2023-07-31T01:59:18;1.20;;;1.10;;
80503;SDS011;69825;51.190;6.808;2023-07-31T02:01:43;1.20;;;1.10;;
80503;SDS011;69825;51.190;6.808;2023-07-31T02:04:08;1.10;;;1.10;;
80503;SDS011;69825;51.190;6.808;2023-07-31T02:06:34;1.27;;;1.17;;
80503;SDS011;69825;51.190;6.808;2023-07-31T02:08:59;1.20;;;1.10;;
80503;SDS011;69825;51.190;6.808;2023-07-31T02:11:25;1.23;;;1.13;;
80503;SDS011;69825;51.190;6.808;2023-07-31T02:13:50;1.33;;;1.23;;
80503;SDS011;69825;51.190;6.808;2023-07-31T02:16:15;0.95;;;0.93;;
80503;SDS011;69825;51.190;6.808;2023-07-31T02:18:41;0.98;;;0.98;;
80503;SDS011;69825;51.190;6.808;2023-07-31T02:21:06;2.08;;;1.35;;
80503;SDS011;69825;51.190;6.808;2023-07-31T02:23:31;1.20;;;1.10;;
80503;SDS011;69825;51.190;6.808;2023-07-31T02:25:57;1.30;;;1.20;;
80503;SDS011;69825;51.190;6.808;2023-07-31T02:28:22;1.40;;;1.30;;
80503;SDS011;69825;51.190;6.808;2023-07-31T02:30:49;1.30;;;1.20;;
80503;SDS011;69825;51.190;6.808;2023-07-31T02:33:15;1.30;;;1.20;;
80503;SDS011;69825;51.190;6.808;2023-07-31T02:35:41;1.13;;;1.02;;
80503;SDS011;69825;51.190;6.808;2023-07-31T02:38:06;1.38;;;1.30;;
80503;SDS011;69825;51.190;6.808;2023-07-31T02:40:32;1.50;;;1.25;;
80503;SDS011;69825;51.190;6.808;2023-07-31T02:42:57;1.10;;;1.10;;
80503;SDS011;69825;51.190;6.808;2023-07-31T02:45:22;1.00;;;1.00;;
80503;SDS011;69825;51.190;6.808;2023-07-31T02:47:48;1.10;;;1.00;;
80503;SDS011;69825;51.190;6.808;2023-07-31T02:50:13;1.10;;;1.10;;
80503;SDS011;69825;51.190;6.808;2023-07-31T02:52:38;1.23;;;1.13;;
80503;SDS011;69825;51.190;6.808;2023-07-31T02:55:04;1.30;;;1.20;;
80503;SDS011;69825;51.190;6.808;2023-07-31T02:57:29;1.05;;;1.05;;
80503;SDS011;69825;51.190;6.808;2023-07-31T02:59:54;0.88;;;0.88;;
80503;SDS011;69825;51.190;6.808;2023-07-31T03:02:20;1.00;;;1.00;;
80503;SDS011;69825;51.190;6.808;2023-07-31T03:04:45;1.20;;;1.10;;
80503;SDS011;69825;51.190;6.808;2023-07-31T03:07:11;1.20;;;1.10;;
80503;SDS011;69825;51.190;6.808;2023-07-31T03:09:36;1.10;;;1.10;;
80503;SDS011;69825;51.190;6.808;2023-07-31T03:12:01;1.25;;;1.10;;
80503;SDS011;69825;51.190;6.808;2023-07-31T03:14:27;0.88;;;0.88;;
80503;SDS011;69825;51.190;6.808;2023-07-31T03:16:53;1.17;;;1.17;;
80503;SDS011;69825;51.190;6.808;2023-07-31T03:19:18;1.17;;;1.10;;
80503;SDS011;69825;51.190;6.808;2023-07-31T03:21:43;1.10;;;1.10;;
80503;SDS011;69825;51.190;6.808;2023-07-31T03:24:09;1.20;;;1.10;;
80503;SDS011;69825;51.190;6.808;2023-07-31T03:26:34;0.90;;;0.90;;
80503;SDS011;69825;51.190;6.808;2023-07-31T03:29:01;1.13;;;1.10;;
80503;SDS011;69825;51.190;6.808;2023-07-31T03:31:26;1.23;;;1.13;;
80503;SDS011;69825;51.190;6.808;2023-07-31T03:33:52;1.30;;;1.20;;
80503;SDS011;69825;51.190;6.808;2023-07-31T03:36:17;0.98;;;0.90;;
80503;SDS011;69825;51.190;6.808;2023-07-31T03:38:42;1.38;;;1.27;;
80503;SDS011;69825;51.190;6.808;2023-07-31T03:41:08;1.10;;;1.00;;
80503;SDS011;69825;51.190;6.808;2023-07-31T03:43:33;1.10;;;1.00;;
80503;SDS011;69825;51.190;6.808;2023-07-31T03:45:59;1.13;;;1.00;;
80503;SDS011;69825;51.190;6.808;2023-07-31T03:48:25;1.20;;;1.10;;
80503;SDS011;69825;51.190;6.808;2023-07-31T03:50:50;1.00;;;1.00;;
80503;SDS011;69825;51.190;6.808;2023-07-31T03:53:16;1.20;;;1.10;;
80503;SDS011;69825;51.190;6.808;2023-07-31T03:55:41;1.25;;;1.15;;
80503;SDS011;69825;51.190;6.808;2023-07-31T03:58:06;1.13;;;1.02;;
80503;SDS011;69825;51.190;6.808;2023-07-31T04:00:32;1.05;;;1.05;;
80503;SDS011;69825;51.190;6.808;2023-07-31T04:02:57;1.10;;;1.10;;
80503;SDS011;69825;51.190;6.808;2023-07-31T04:05:22;0.90;;;0.85;;
80503;SDS011;69825;51.190;6.808;2023-07-31T04:07:48;1.02;;;1.00;;
80503;SDS011;69825;51.190;6.808;2023-07-31T04:10:13;1.30;;;1.20;;
80503;SDS011;69825;51.190;6.808;2023-07-31T04:12:38;1.30;;;1.20;;
80503;SDS011;69825;51.190;6.808;2023-07-31T04:15:04;1.25;;;1.20;;
80503;SDS011;69825;51.190;6.808;2023-07-31T04:17:29;0.93;;;0.90;;
80503;SDS011;69825;51.190;6.808;2023-07-31T04:19:55;1.20;;;1.10;;
80503;SDS011;69825;51.190;6.808;2023-07-31T04:22:20;0.93;;;0.93;;
80503;SDS011;69825;51.190;6.808;2023-07-31T04:24:45;1.33;;;1.23;;
80503;SDS011;69825;51.190;6.808;2023-07-31T04:27:11;1.10;;;1.00;;
80503;SDS011;69825;51.190;6.808;2023-07-31T04:29:36;1.13;;;1.10;;
80503;SDS011;69825;51.190;6.808;2023-07-31T04:32:01;1.00;;;1.00;;
80503;SDS011;69825;51.190;6.808;2023-07-31T04:34:27;1.15;;;1.05;;
80503;SDS011;69825;51.190;6.808;2023-07-31T04:36:52;1.20;;;1.10;;
80503;SDS011;69825;51.190;6.808;2023-07-31T04:39:17;1.13;;;0.90;;
80503;SDS011;69825;51.190;6.808;2023-07-31T04:41:43;1.00;;;1.00;;
80503;SDS011;69825;51.190;6.808;2023-07-31T04:44:08;0.95;;;0.93;;
80503;SDS011;69825;51.190;6.808;2023-07-31T04:46:36;1.00;;;1.00;;
80503;SDS011;69825;51.190;6.808;2023-07-31T04:49:02;1.58;;;1.00;;
80503;SDS011;69825;51.190;6.808;2023-07-31T04:51:28;1.23;;;1.00;;
80503;SDS011;69825;51.190;6.808;2023-07-31T04:53:53;1.05;;;0.95;;
80503;SDS011;69825;51.190;6.808;2023-07-31T04:56:18;1.20;;;1.10;;
80503;SDS011;69825;51.190;6.808;2023-07-31T04:58:44;1.00;;;1.00;;
80503;SDS011;69825;51.190;6.808;2023-07-31T05:01:09;1.00;;;1.00;;
80503;SDS011;69825;51.190;6.808;2023-07-31T05:03:34;0.90;;;0.90;;
80503;SDS011;69825;51.190;6.808;2023-07-31T05:06:00;0.93;;;0.93;;
80503;SDS011;69825;51.190;6.808;2023-07-31T05:08:25;1.40;;;1.33;;
80503;SDS011;69825;51.190;6.808;2023-07-31T05:10:50;1.40;;;1.30;;
80503;SDS011;69825;51.190;6.808;2023-07-31T05:13:16;1.20;;;1.10;;
80503;SDS011;69825;51.190;6.808;2023-07-31T05:15:41;1.45;;;1.30;;
80503;SDS011;69825;51.190;6.808;2023-07-31T05:18:07;1.00;;;1.00;;
80503;SDS011;69825;51.190;6.808;2023-07-31T05:20:32;1.45;;;1.10;;
80503;SDS011;69825;51.190;6.808;2023-07-31T05:22:57;1.30;;;1.20;;
80503;SDS011;69825;51.190;6.808;2023-07-31T05:25:23;1.35;;;1.27;;
80503;SDS011;69825;51.190;6.808;2023-07-31T05:27:48;1.20;;;1.10;;
80503;SDS011;69825;51.190;6.808;2023-07-31T05:30:14;1.10;;;1.00;;
80503;SDS011;69825;51.190;6.808;2023-07-31T05:32:39;1.55;;;1.23;;
80503;SDS011;69825;51.190;6.808;2023-07-31T05:35:04;1.50;;;1.40;;
80503;SDS011;69825;51.190;6.808;2023-07-31T05:37:30;1.10;;;1.10;;
80503;SDS011;69825;51.190;6.808;2023-07-31T05:39:56;1.38;;;1.27;;
80503;SDS011;69825;51.190;6.808;2023-07-31T05:42:21;1.15;;;1.15;;
80503;SDS011;69825;51.190;6.808;2023-07-31T05:44:47;2.10;;;1.40;;
80503;SDS011;69825;51.190;6.808;2023-07-31T05:47:12;2.05;;;1.45;;
80503;SDS011;69825;51.190;6.808;2023-07-31T05:49:38;1.30;;;1.20;;
80503;SDS011;69825;51.190;6.808;2023-07-31T05:52:03;1.20;;;1.13;;
80503;SDS011;69825;51.190;6.808;2023-07-31T05:54:29;1.40;;;1.30;;
80503;SDS011;69825;51.190;6.808;2023-07-31T05:56:54;1.33;;;1.17;;
80503;SDS011;69825;51.190;6.808;2023-07-31T05:59:20;1.33;;;1.23;;
80503;SDS011;69825;51.190;6.808;2023-07-31T06:01:45;1.30;;;1.20;;
80503;SDS011;69825;51.190;6.808;2023-07-31T06:04:10;1.27;;;1.20;;
80503;SDS011;69825;51.190;6.808;2023-07-31T06:06:36;1.60;;;1.48;;
80503;SDS011;69825;51.190;6.808;2023-07-31T06:09:01;1.25;;;1.15;;
80503;SDS011;69825;51.190;6.808;2023-07-31T06:11:28;1.20;;;1.20;;
80503;SDS011;69825;51.190;6.808;2023-07-31T06:13:54;2.13;;;1.33;;
80503;SDS011;69825;51.190;6.808;2023-07-31T06:16:19;1.25;;;1.10;;
80503;SDS011;69825;51.190;6.808;2023-07-31T06:18:46;1.40;;;1.30;;
80503;SDS011;69825;51.190;6.808;2023-07-31T06:21:11;1.25;;;1.15;;
80503;SDS011;69825;51.190;6.808;2023-07-31T06:23:37;2.58;;;1.60;;
80503;SDS011;69825;51.190;6.808;2023-07-31T06:26:02;1.40;;;1.30;;
80503;SDS011;69825;51.190;6.808;2023-07-31T06:28:28;1.50;;;1.40;;
80503;SDS011;69825;51.190;6.808;2023-07-31T06:30:54;1.48;;;1.38;;
80503;SDS011;69825;51.190;6.808;2023-07-31T06:33:19;1.50;;;1.40;;
80503;SDS011;69825;51.190;6.808;2023-07-31T06:35:45;1.35;;;1.25;;
80503;SDS011;69825;51.190;6.808;2023-07-31T06:38:10;1.45;;;1.35;;
80503;SDS011;69825;51.190;6.808;2023-07-31T06:40:36;1.50;;;1.40;;
80503;SDS011;69825;51.190;6.808;2023-07-31T06:43:01;1.50;;;1.40;;
80503;SDS011;69825;51.190;6.808;2023-07-31T06:45:32;1.88;;;1.77;;
80503;SDS011;69825;51.190;6.808;2023-07-31T06:48:01;1.63;;;1.52;;
80503;SDS011;69825;51.190;6.808;2023-07-31T06:50:28;1.52;;;1.42;;
80503;SDS011;69825;51.190;6.808;2023-07-31T06:52:53;2.60;;;1.60;;
80503;SDS011;69825;51.190;6.808;2023-07-31T06:55:20;1.63;;;1.52;;
80503;SDS011;69825;51.190;6.808;2023-07-31T06:57:47;1.52;;;1.42;;
80503;SDS011;69825;51.190;6.808;2023-07-31T07:00:13;1.50;;;1.40;;
80503;SDS011;69825;51.190;6.808;2023-07-31T07:02:39;1.58;;;1.48;;
80503;SDS011;69825;51.190;6.808;2023-07-31T07:05:05;1.58;;;1.48;;
80503;SDS011;69825;51.190;6.808;2023-07-31T07:07:31;2.33;;;1.50;;
80503;SDS011;69825;51.190;6.808;2023-07-31T07:09:57;1.70;;;1.60;;
80503;SDS011;69825;51.190;6.808;2023-07-31T07:12:24;2.15;;;1.67;;
80503;SDS011;69825;51.190;6.808;2023-07-31T07:14:50;1.77;;;1.67;;
80503;SDS011;69825;51.190;6.808;2023-07-31T07:17:15;1.50;;;1.40;;
80503;SDS011;69825;51.190;6.808;2023-07-31T07:19:41;1.70;;;1.60;;
80503;SDS011;69825;51.190;6.808;2023-07-31T07:22:07;1.52;;;1.42;;
80503;SDS011;69825;51.190;6.808;2023-07-31T07:24:32;1.70;;;1.60;;
80503;SDS011;69825;51.190;6.808;2023-07-31T07:26:57;1.70;;;1.60;;
80503;SDS011;69825;51.190;6.808;2023-07-31T07:29:23;1.70;;;1.50;;
80503;SDS011;69825;51.190;6.808;2023-07-31T07:31:48;2.00;;;1.67;;
80503;SDS011;69825;51.190;6.808;2023-07-31T07:34:14;1.55;;;1.45;;
80503;SDS011;69825;51.190;6.808;2023-07-31T07:36:39;1.80;;;1.70;;
80503;SDS011;69825;51.190;6.808;2023-07-31T07:39:04;1.60;;;1.50;;
80503;SDS011;69825;51.190;6.808;2023-07-31T07:41:30;1.73;;;1.50;;
80503;SDS011;69825;51.190;6.808;2023-07-31T07:43:55;1.67;;;1.52;;
80503;SDS011;69825;51.190;6.808;2023-07-31T07:46:20;1.85;;;1.50;;
80503;SDS011;69825;51.190;6.808;2023-07-31T07:48:46;1.65;;;1.55;;
80503;SDS011;69825;51.190;6.808;2023-07-31T07:51:11;1.63;;;1.52;;
80503;SDS011;69825;51.190;6.808;2023-07-31T07:53:36;2.42;;;1.95;;
80503;SDS011;69825;51.190;6.808;2023-07-31T07:56:02;1.58;;;1.48;;
80503;SDS011;69825;51.190;6.808;2023-07-31T07:58:27;1.42;;;1.33;;
80503;SDS011;69825;51.190;6.808;2023-07-31T08:00:53;1.80;;;1.70;;
80503;SDS011;69825;51.190;6.808;2023-07-31T08:03:18;1.77;;;1.67;;
80503;SDS011;69825;51.190;6.808;2023-07-31T08:05:44;1.80;;;1.60;;
80503;SDS011;69825;51.190;6.808;2023-07-31T08:08:13;1.92;;;1.70;;
80503;SDS011;69825;51.190;6.808;2023-07-31T08:10:41;1.50;;;1.40;;
80503;SDS011;69825;51.190;6.808;2023-07-31T08:13:06;1.80;;;1.55;;
80503;SDS011;69825;51.190;6.808;2023-07-31T08:15:32;1.70;;;1.60;;
80503;SDS011;69825;51.190;6.808;2023-07-31T08:17:57;1.67;;;1.58;;
80503;SDS011;69825;51.190;6.808;2023-07-31T08:20:22;1.70;;;1.50;;
80503;SDS011;69825;51.190;6.808;2023-07-31T08:22:48;1.55;;;1.45;;
80503;SDS011;69825;51.190;6.808;2023-07-31T08:25:13;1.73;;;1.55;;
80503;SDS011;69825;51.190;6.808;2023-07-31T08:27:42;1.60;;;1.50;;
80503;SDS011;69825;51.190;6.808;2023-07-31T08:30:08;1.65;;;1.55;;
80503;SDS011;69825;51.190;6.808;2023-07-31T08:32:34;1.80;;;1.70;;
80503;SDS011;69825;51.190;6.808;2023-07-31T08:34:59;1.67;;;1.58;;
80503;SDS011;69825;51.190;6.808;2023-07-31T08:37:25;1.67;;;1.58;;
80503;SDS011;69825;51.190;6.808;2023-07-31T08:39:50;1.70;;;1.60;;
80503;SDS011;69825;51.190;6.808;2023-07-31T08:42:16;1.60;;;1.50;;
80503;SDS011;69825;51.190;6.808;2023-07-31T08:44:41;1.70;;;1.60;;
80503;SDS011;69825;51.190;6.808;2023-07-31T08:47:08;1.55;;;1.45;;
80503;SDS011;69825;51.190;6.808;2023-07-31T08:49:35;1.60;;;1.50;;
80503;SDS011;69825;51.190;6.808;2023-07-31T08:52:03;1.88;;;1.73;;
80503;SDS011;69825;51.190;6.808;2023-07-31T08:54:29;1.85;;;1.60;;
80503;SDS011;69825;51.190;6.808;2023-07-31T08:56:56;2.58;;;1.33;;
80503;SDS011;69825;51.190;6.808;2023-07-31T08:59:23;1.60;;;1.50;;
80503;SDS011;69825;51.190;6.808;2023-07-31T09:01:49;2.03;;;1.70;;
80503;SDS011;69825;51.190;6.808;2023-07-31T09:04:18;1.75;;;1.65;;
80503;SDS011;69825;51.190;6.808;2023-07-31T09:06:46;1.60;;;1.50;;
80503;SDS011;69825;51.190;6.808;2023-07-31T09:09:13;1.50;;;1.40;;
80503;SDS011;69825;51.190;6.808;2023-07-31T09:11:38;2.08;;;1.63;;
80503;SDS011;69825;51.190;6.808;2023-07-31T09:14:05;1.60;;;1.45;;
80503;SDS011;69825;51.190;6.808;2023-07-31T09:16:34;1.85;;;1.50;;
80503;SDS011;69825;51.190;6.808;2023-07-31T09:18:59;1.90;;;1.70;;
80503;SDS011;69825;51.190;6.808;2023-07-31T09:21:26;1.63;;;1.52;;
80503;SDS011;69825;51.190;6.808;2023-07-31T09:23:52;1.48;;;1.38;;
80503;SDS011;69825;51.190;6.808;2023-07-31T09:28:57;1.63;;;1.45;;
80503;SDS011;69825;51.190;6.808;2023-07-31T09:31:32;1.70;;;1.60;;
80503;SDS011;69825;51.190;6.808;2023-07-31T09:34:05;1.63;;;1.52;;
80503;SDS011;69825;51.190;6.808;2023-07-31T09:36:31;1.55;;;1.45;;
80503;SDS011;69825;51.190;6.808;2023-07-31T09:38:58;2.22;;;1.60;;
80503;SDS011;69825;51.190;6.808;2023-07-31T09:41:27;1.88;;;1.70;;
80503;SDS011;69825;51.190;6.808;2023-07-31T09:43:53;1.67;;;1.58;;
80503;SDS011;69825;51.190;6.808;2023-07-31T09:46:20;1.50;;;1.40;;
80503;SDS011;69825;51.190;6.808;2023-07-31T09:48:46;1.50;;;1.40;;
80503;SDS011;69825;51.190;6.808;2023-07-31T09:51:12;1.67;;;1.50;;
80503;SDS011;69825;51.190;6.808;2023-07-31T09:53:37;1.70;;;1.60;;
80503;SDS011;69825;51.190;6.808;2023-07-31T09:56:02;1.60;;;1.50;;
80503;SDS011;69825;51.190;6.808;2023-07-31T09:58:28;3.05;;;1.73;;
80503;SDS011;69825;51.190;6.808;2023-07-31T10:00:55;1.92;;;1.83;;
80503;SDS011;69825;51.190;6.808;2023-07-31T10:03:22;1.63;;;1.52;;
80503;SDS011;69825;51.190;6.808;2023-07-31T10:05:49;1.85;;;1.50;;
80503;SDS011;69825;51.190;6.808;2023-07-31T10:08:16;1.98;;;1.60;;
80503;SDS011;69825;51.190;6.808;2023-07-31T10:10:45;1.63;;;1.52;;
80503;SDS011;69825;51.190;6.808;2023-07-31T10:13:11;2.13;;;1.60;;
80503;SDS011;69825;51.190;6.808;2023-07-31T10:15:38;1.60;;;1.50;;
80503;SDS011;69825;51.190;6.808;2023-07-31T10:18:05;2.00;;;1.67;;
80503;SDS011;69825;51.190;6.808;2023-07-31T10:20:31;1.92;;;1.73;;
80503;SDS011;69825;51.190;6.808;2023-07-31T10:22:57;3.47;;;1.70;;
80503;SDS011;69825;51.190;6.808;2023-07-31T10:25:24;2.03;;;1.67;;
80503;SDS011;69825;51.190;6.808;2023-07-31T10:27:51;2.03;;;1.63;;
80503;SDS011;69825;51.190;6.808;2023-07-31T10:30:19;2.20;;;1.88;;
80503;SDS011;69825;51.190;6.808;2023-07-31T10:32:45;1.88;;;1.70;;
80503;SDS011;69825;51.190;6.808;2023-07-31T10:35:14;1.88;;;1.70;;
80503;SDS011;69825;51.190;6.808;2023-07-31T10:37:41;2.00;;;1.70;;
80503;SDS011;69825;51.190;6.808;2023-07-31T10:40:23;3.47;;;1.83;;
80503;SDS011;69825;51.190;6.808;2023-07-31T10:42:53;2.20;;;1.73;;
80503;SDS011;69825;51.190;6.808;2023-07-31T10:45:32;1.92;;;1.80;;
80503;SDS011;69825;51.190;6.808;2023-07-31T10:48:07;1.83;;;1.73;;
80503;SDS011;69825;51.190;6.808;2023-07-31T10:50:45;2.97;;;1.75;;
80503;SDS011;69825;51.190;6.808;2023-07-31T10:56:10;1.98;;;1.80;;
80503;SDS011;69825;51.190;6.808;2023-07-31T10:58:43;1.80;;;1.70;;
80503;SDS011;69825;51.190;6.808;2023-07-31T11:01:10;2.28;;;1.60;;
80503;SDS011;69825;51.190;6.808;2023-07-31T11:03:43;1.80;;;1.70;;
80503;SDS011;69825;51.190;6.808;2023-07-31T11:06:14;2.10;;;1.50;;
80503;SDS011;69825;51.190;6.808;2023-07-31T11:08:41;1.90;;;1.75;;
80503;SDS011;69825;51.190;6.808;2023-07-31T11:11:12;2.63;;;1.60;;
80503;SDS011;69825;51.190;6.808;2023-07-31T11:13:42;1.83;;;1.63;;
80503;SDS011;69825;51.190;6.808;2023-07-31T11:16:09;1.60;;;1.50;;
80503;SDS011;69825;51.190;6.808;2023-07-31T11:18:38;1.95;;;1.85;;
80503;SDS011;69825;51.190;6.808;2023-07-31T11:21:04;1.60;;;1.50;;
80503;SDS011;69825;51.190;6.808;2023-07-31T11:23:30;1.83;;;1.70;;
80503;SDS011;69825;51.190;6.808;2023-07-31T11:25:58;1.50;;;1.40;;
80503;SDS011;69825;51.190;6.808;2023-07-31T11:28:25;1.58;;;1.48;;
80503;SDS011;69825;51.190;6.808;2023-07-31T11:30:50;1.80;;;1.70;;
80503;SDS011;69825;51.190;6.808;2023-07-31T11:33:16;1.58;;;1.48;;
80503;SDS011;69825;51.190;6.808;2023-07-31T11:35:46;1.70;;;1.60;;
80503;SDS011;69825;51.190;6.808;2023-07-31T11:38:26;1.70;;;1.60;;
80503;SDS011;69825;51.190;6.808;2023-07-31T11:40:54;1.77;;;1.67;;
80503;SDS011;69825;51.190;6.808;2023-07-31T11:43:20;1.70;;;1.60;;
80503;SDS011;69825;51.190;6.808;2023-07-31T11:45:50;1.70;;;1.60;;
80503;SDS011;69825;51.190;6.808;2023-07-31T11:48:20;1.60;;;1.50;;
80503;SDS011;69825;51.190;6.808;2023-07-31T11:50:47;2.00;;;1.80;;
80503;SDS011;69825;51.190;6.808;2023-07-31T11:53:15;1.55;;;1.45;;
80503;SDS011;69825;51.190;6.808;2023-07-31T11:55:42;1.65;;;1.50;;
80503;SDS011;69825;51.190;6.808;2023-07-31T11:58:08;1.70;;;1.60;;
80503;SDS011;69825;51.190;6.808;2023-07-31T12:00:34;1.60;;;1.50;;
80503;SDS011;69825;51.190;6.808;2023-07-31T12:02:59;1.60;;;1.50;;
80503;SDS011;69825;51.190;6.808;2023-07-31T12:05:25;1.70;;;1.60;;
80503;SDS011;69825;51.190;6.808;2023-07-31T12:07:51;1.80;;;1.70;;
80503;SDS011;69825;51.190;6.808;2023-07-31T12:12:58;1.50;;;1.40;;
80503;SDS011;69825;51.190;6.808;2023-07-31T12:15:32;1.65;;;1.55;;
80503;SDS011;69825;51.190;6.808;2023-07-31T12:18:03;1.60;;;1.50;;
80503;SDS011;69825;51.190;6.808;2023-07-31T12:20:30;1.60;;;1.50;;
80503;SDS011;69825;51.190;6.808;2023-07-31T12:22:56;1.65;;;1.33;;
80503;SDS011;69825;51.190;6.808;2023-07-31T12:25:23;1.77;;;1.42;;
80503;SDS011;69825;51.190;6.808;2023-07-31T12:27:48;2.85;;;1.67;;
80503;SDS011;69825;51.190;6.808;2023-07-31T12:32:54;1.67;;;1.55;;
80503;SDS011;69825;51.190;6.808;2023-07-31T12:35:20;1.95;;;1.48;;
80503;SDS011;69825;51.190;6.808;2023-07-31T12:37:45;1.73;;;1.40;;
80503;SDS011;69825;51.190;6.808;2023-07-31T12:40:10;1.60;;;1.50;;
80503;SDS011;69825;51.190;6.808;2023-07-31T12:42:36;1.40;;;1.30;;
80503;SDS011;69825;51.190;6.808;2023-07-31T12:45:01;1.92;;;1.50;;
80503;SDS011;69825;51.190;6.808;2023-07-31T12:47:27;1.60;;;1.50;;
80503;SDS011;69825;51.190;6.808;2023-07-31T12:49:53;1.50;;;1.40;;
80503;SDS011;69825;51.190;6.808;2023-07-31T12:52:18;1.70;;;1.60;;
80503;SDS011;69825;51.190;6.808;2023-07-31T12:54:43;1.45;;;1.35;;
80503;SDS011;69825;51.190;6.808;2023-07-31T12:57:09;1.23;;;1.23;;
80503;SDS011;69825;51.190;6.808;2023-07-31T12:59:34;1.33;;;1.20;;
80503;SDS011;69825;51.190;6.808;2023-07-31T13:01:59;1.42;;;1.33;;
80503;SDS011;69825;51.190;6.808;2023-07-31T13:04:25;1.40;;;1.30;;
80503;SDS011;69825;51.190;6.808;2023-07-31T13:06:50;1.50;;;1.40;;
80503;SDS011;69825;51.190;6.808;2023-07-31T13:09:16;1.45;;;1.35;;
80503;SDS011;69825;51.190;6.808;2023-07-31T13:11:42;1.70;;;1.60;;
80503;SDS011;69825;51.190;6.808;2023-07-31T13:14:08;1.67;;;1.40;;
80503;SDS011;69825;51.190;6.808;2023-07-31T13:16:33;1.65;;;1.30;;
80503;SDS011;69825;51.190;6.808;2023-07-31T13:18:58;2.03;;;1.33;;
80503;SDS011;69825;51.190;6.808;2023-07-31T13:21:24;2.08;;;1.35;;
80503;SDS011;69825;51.190;6.808;2023-07-31T13:23:49;1.60;;;1.50;;
80503;SDS011;69825;51.190;6.808;2023-07-31T13:26:14;1.48;;;1.38;;
80503;SDS011;69825;51.190;6.808;2023-07-31T13:28:40;2.45;;;1.40;;
80503;SDS011;69825;51.190;6.808;2023-07-31T13:31:05;1.48;;;1.38;;
80503;SDS011;69825;51.190;6.808;2023-07-31T13:33:30;1.42;;;1.20;;
80503;SDS011;69825;51.190;6.808;2023-07-31T13:35:56;2.65;;;1.35;;
80503;SDS011;69825;51.190;6.808;2023-07-31T13:38:21;1.65;;;1.50;;
80503;SDS011;69825;51.190;6.808;2023-07-31T13:40:46;2.25;;;1.40;;
80503;SDS011;69825;51.190;6.808;2023-07-31T13:43:12;2.00;;;1.50;;
80503;SDS011;69825;51.190;6.808;2023-07-31T13:45:37;1.52;;;1.42;;
80503;SDS011;69825;51.190;6.808;2023-07-31T13:48:02;2.08;;;1.65;;
80503;SDS011;69825;51.190;6.808;2023-07-31T13:50:28;1.90;;;1.70;;
80503;SDS011;69825;51.190;6.808;2023-07-31T13:52:54;2.65;;;1.50;;
80503;SDS011;69825;51.190;6.808;2023-07-31T13:55:19;1.90;;;1.70;;
80503;SDS011;69825;51.190;6.808;2023-07-31T13:57:45;1.67;;;1.58;;
80503;SDS011;69825;51.190;6.808;2023-07-31T14:00:11;1.60;;;1.50;;
80503;SDS011;69825;51.190;6.808;2023-07-31T14:02:37;2.83;;;1.63;;
80503;SDS011;69825;51.190;6.808;2023-07-31T14:05:02;1.63;;;1.45;;
80503;SDS011;69825;51.190;6.808;2023-07-31T14:07:28;2.78;;;1.60;;
80503;SDS011;69825;51.190;6.808;2023-07-31T14:09:53;3.67;;;1.70;;
80503;SDS011;69825;51.190;6.808;2023-07-31T14:12:18;2.45;;;1.85;;
80503;SDS011;69825;51.190;6.808;2023-07-31T14:14:44;2.65;;;2.00;;
80503;SDS011;69825;51.190;6.808;2023-07-31T14:17:09;2.17;;;1.58;;
80503;SDS011;69825;51.190;6.808;2023-07-31T14:19:34;2.25;;;1.60;;
80503;SDS011;69825;51.190;6.808;2023-07-31T14:22:00;1.60;;;1.50;;
80503;SDS011;69825;51.190;6.808;2023-07-31T14:24:25;2.00;;;1.80;;
80503;SDS011;69825;51.190;6.808;2023-07-31T14:26:51;1.90;;;1.73;;
80503;SDS011;69825;51.190;6.808;2023-07-31T14:29:16;3.08;;;1.80;;
80503;SDS011;69825;51.190;6.808;2023-07-31T14:31:41;1.80;;;1.60;;
80503;SDS011;69825;51.190;6.808;2023-07-31T14:34:07;2.35;;;1.88;;
80503;SDS011;69825;51.190;6.808;2023-07-31T14:36:32;2.08;;;1.70;;
80503;SDS011;69825;51.190;6.808;2023-07-31T14:38:57;2.65;;;1.92;;
80503;SDS011;69825;51.190;6.808;2023-07-31T14:41:23;1.55;;;1.45;;
80503;SDS011;69825;51.190;6.808;2023-07-31T14:43:48;1.60;;;1.50;;
80503;SDS011;69825;51.190;6.808;2023-07-31T14:46:13;1.70;;;1.55;;
80503;SDS011;69825;51.190;6.808;2023-07-31T14:48:39;2.10;;;1.70;;
80503;SDS011;69825;51.190;6.808;2023-07-31T14:51:05;1.70;;;1.60;;
80503;SDS011;69825;51.190;6.808;2023-07-31T14:53:30;2.20;;;1.80;;
80503;SDS011;69825;51.190;6.808;2023-07-31T14:55:55;1.42;;;1.30;;